sensor_id;sensor_type;location;lat;lon;timestamp;P1;durP1;ratioP1;P2;durP2;ratioP2
966;SDS011;56108;48.730;9.304;2023-03-01T00:00:15;22.38;;;16.60;;
966;SDS011;56108;48.730;9.304;2023-03-01T00:02:24;22.60;;;16.45;;
966;SDS011;56108;48.730;9.304;2023-03-01T00:04:32;22.17;;;17.33;;
966;SDS011;56108;48.730;9.304;2023-03-01T00:06:44;19.83;;;16.00;;
966;SDS011;56108;48.730;9.304;2023-03-01T00:08:53;21.58;;;16.77;;
966;SDS011;56108;48.730;9.304;2023-03-01T00:11:05;22.52;;;16.90;;
966;SDS011;56108;48.730;9.304;2023-03-01T00:13:15;25.40;;;16.50;;
966;SDS011;56108;48.730;9.304;2023-03-01T00:15:24;23.02;;;17.52;;
966;SDS011;56108;48.730;9.304;2023-03-01T00:17:32;25.77;;;16.42;;
966;SDS011;56108;48.730;9.304;2023-03-01T00:19:40;22.23;;;16.48;;
966;SDS011;56108;48.730;9.304;2023-03-01T00:21:50;23.02;;;17.15;;
966;SDS011;56108;48.730;9.304;2023-03-01T00:23:58;22.23;;;16.45;;
966;SDS011;56108;48.730;9.304;2023-03-01T00:26:06;21.65;;;16.50;;
966;SDS011;56108;48.730;9.304;2023-03-01T00:28:17;23.13;;;17.65;;
966;SDS011;56108;48.730;9.304;2023-03-01T00:30:26;22.50;;;15.63;;
966;SDS011;56108;48.730;9.304;2023-03-01T00:32:34;18.00;;;15.40;;
966;SDS011;56108;48.730;9.304;2023-03-01T00:34:42;22.48;;;17.58;;
966;SDS011;56108;48.730;9.304;2023-03-01T00:37:01;22.95;;;16.67;;
966;SDS011;56108;48.730;9.304;2023-03-01T00:39:10;25.33;;;17.52;;
966;SDS011;56108;48.730;9.304;2023-03-01T00:41:20;22.88;;;18.33;;
966;SDS011;56108;48.730;9.304;2023-03-01T00:43:31;24.77;;;17.17;;
966;SDS011;56108;48.730;9.304;2023-03-01T00:45:41;18.13;;;15.85;;
966;SDS011;56108;48.730;9.304;2023-03-01T00:47:49;20.58;;;15.60;;
966;SDS011;56108;48.730;9.304;2023-03-01T00:49:58;20.25;;;16.08;;
966;SDS011;56108;48.730;9.304;2023-03-01T00:52:09;20.90;;;16.02;;
966;SDS011;56108;48.730;9.304;2023-03-01T00:54:17;23.17;;;17.45;;
966;SDS011;56108;48.730;9.304;2023-03-01T00:56:25;21.83;;;16.80;;
966;SDS011;56108;48.730;9.304;2023-03-01T00:58:36;25.67;;;16.25;;
966;SDS011;56108;48.730;9.304;2023-03-01T01:00:44;24.45;;;15.93;;
966;SDS011;56108;48.730;9.304;2023-03-01T01:02:52;21.70;;;16.60;;
966;SDS011;56108;48.730;9.304;2023-03-01T01:05:01;25.65;;;18.30;;
966;SDS011;56108;48.730;9.304;2023-03-01T01:07:14;25.27;;;18.08;;
966;SDS011;56108;48.730;9.304;2023-03-01T01:09:22;22.55;;;17.33;;
966;SDS011;56108;48.730;9.304;2023-03-01T01:11:30;26.42;;;18.83;;
966;SDS011;56108;48.730;9.304;2023-03-01T01:13:39;21.35;;;16.35;;
966;SDS011;56108;48.730;9.304;2023-03-01T01:15:48;21.15;;;17.23;;
966;SDS011;56108;48.730;9.304;2023-03-01T01:17:57;22.90;;;16.85;;
966;SDS011;56108;48.730;9.304;2023-03-01T01:20:08;20.23;;;15.90;;
966;SDS011;56108;48.730;9.304;2023-03-01T01:22:20;22.15;;;17.17;;
966;SDS011;56108;48.730;9.304;2023-03-01T01:24:28;23.67;;;16.83;;
966;SDS011;56108;48.730;9.304;2023-03-01T01:26:36;23.58;;;18.40;;
966;SDS011;56108;48.730;9.304;2023-03-01T01:28:45;21.83;;;18.00;;
966;SDS011;56108;48.730;9.304;2023-03-01T01:30:56;22.88;;;17.38;;
966;SDS011;56108;48.730;9.304;2023-03-01T01:33:04;22.58;;;17.15;;
966;SDS011;56108;48.730;9.304;2023-03-01T01:35:12;24.23;;;17.30;;
966;SDS011;56108;48.730;9.304;2023-03-01T01:37:23;22.05;;;16.10;;
966;SDS011;56108;48.730;9.304;2023-03-01T01:39:44;22.60;;;16.40;;
966;SDS011;56108;48.730;9.304;2023-03-01T01:41:57;21.58;;;16.77;;
966;SDS011;56108;48.730;9.304;2023-03-01T01:44:14;23.70;;;17.80;;
966;SDS011;56108;48.730;9.304;2023-03-01T01:46:28;22.05;;;17.40;;
966;SDS011;56108;48.730;9.304;2023-03-01T01:48:39;21.45;;;17.05;;
966;SDS011;56108;48.730;9.304;2023-03-01T01:50:50;24.25;;;17.35;;
966;SDS011;56108;48.730;9.304;2023-03-01T01:53:06;22.83;;;18.10;;
966;SDS011;56108;48.730;9.304;2023-03-01T01:55:20;22.00;;;16.67;;
966;SDS011;56108;48.730;9.304;2023-03-01T01:58:00;24.33;;;18.27;;
966;SDS011;56108;48.730;9.304;2023-03-01T02:00:13;23.83;;;17.85;;
966;SDS011;56108;48.730;9.304;2023-03-01T02:02:24;25.95;;;18.00;;
966;SDS011;56108;48.730;9.304;2023-03-01T02:04:33;27.17;;;18.88;;
966;SDS011;56108;48.730;9.304;2023-03-01T02:06:41;22.15;;;16.45;;
966;SDS011;56108;48.730;9.304;2023-03-01T02:09:02;24.15;;;16.50;;
966;SDS011;56108;48.730;9.304;2023-03-01T02:11:14;22.30;;;16.25;;
966;SDS011;56108;48.730;9.304;2023-03-01T02:13:25;19.10;;;15.85;;
966;SDS011;56108;48.730;9.304;2023-03-01T02:15:33;26.63;;;17.98;;
966;SDS011;56108;48.730;9.304;2023-03-01T02:17:43;25.02;;;17.58;;
966;SDS011;56108;48.730;9.304;2023-03-01T02:19:55;24.73;;;17.05;;
966;SDS011;56108;48.730;9.304;2023-03-01T02:22:14;22.98;;;16.33;;
966;SDS011;56108;48.730;9.304;2023-03-01T02:24:33;24.95;;;17.92;;
966;SDS011;56108;48.730;9.304;2023-03-01T02:26:52;23.98;;;17.48;;
966;SDS011;56108;48.730;9.304;2023-03-01T02:29:05;21.83;;;16.98;;
966;SDS011;56108;48.730;9.304;2023-03-01T02:31:14;22.90;;;17.25;;
966;SDS011;56108;48.730;9.304;2023-03-01T02:33:39;25.27;;;19.10;;
966;SDS011;56108;48.730;9.304;2023-03-01T02:35:58;23.13;;;17.83;;
966;SDS011;56108;48.730;9.304;2023-03-01T02:38:08;26.00;;;17.85;;
966;SDS011;56108;48.730;9.304;2023-03-01T02:40:17;23.52;;;18.00;;
966;SDS011;56108;48.730;9.304;2023-03-01T02:42:26;22.85;;;17.60;;
966;SDS011;56108;48.730;9.304;2023-03-01T02:44:41;26.13;;;17.60;;
966;SDS011;56108;48.730;9.304;2023-03-01T02:46:50;25.92;;;17.45;;
966;SDS011;56108;48.730;9.304;2023-03-01T02:48:59;26.95;;;18.25;;
966;SDS011;56108;48.730;9.304;2023-03-01T02:51:24;24.48;;;18.35;;
966;SDS011;56108;48.730;9.304;2023-03-01T02:53:41;22.50;;;16.90;;
966;SDS011;56108;48.730;9.304;2023-03-01T02:56:12;23.90;;;17.77;;
966;SDS011;56108;48.730;9.304;2023-03-01T02:58:22;21.75;;;16.52;;
966;SDS011;56108;48.730;9.304;2023-03-01T03:00:34;24.85;;;17.88;;
966;SDS011;56108;48.730;9.304;2023-03-01T03:02:45;26.02;;;18.55;;
966;SDS011;56108;48.730;9.304;2023-03-01T03:04:59;23.10;;;17.58;;
966;SDS011;56108;48.730;9.304;2023-03-01T03:07:06;24.40;;;18.30;;
966;SDS011;56108;48.730;9.304;2023-03-01T03:09:14;28.50;;;20.55;;
966;SDS011;56108;48.730;9.304;2023-03-01T03:11:23;23.85;;;18.33;;
966;SDS011;56108;48.730;9.304;2023-03-01T03:13:32;28.20;;;18.42;;
966;SDS011;56108;48.730;9.304;2023-03-01T03:16:10;25.45;;;19.00;;
966;SDS011;56108;48.730;9.304;2023-03-01T03:18:24;26.23;;;17.20;;
966;SDS011;56108;48.730;9.304;2023-03-01T03:20:33;24.55;;;19.63;;
966;SDS011;56108;48.730;9.304;2023-03-01T03:22:42;26.50;;;19.67;;
966;SDS011;56108;48.730;9.304;2023-03-01T03:24:50;26.02;;;18.23;;
966;SDS011;56108;48.730;9.304;2023-03-01T03:26:58;27.88;;;18.75;;
966;SDS011;56108;48.730;9.304;2023-03-01T03:29:06;24.67;;;18.65;;
966;SDS011;56108;48.730;9.304;2023-03-01T03:31:16;26.90;;;18.08;;
966;SDS011;56108;48.730;9.304;2023-03-01T03:33:24;24.80;;;17.40;;
966;SDS011;56108;48.730;9.304;2023-03-01T03:35:33;25.33;;;18.52;;
966;SDS011;56108;48.730;9.304;2023-03-01T03:37:47;25.90;;;18.58;;
966;SDS011;56108;48.730;9.304;2023-03-01T03:40:08;23.02;;;17.92;;
966;SDS011;56108;48.730;9.304;2023-03-01T03:42:20;27.15;;;19.35;;
966;SDS011;56108;48.730;9.304;2023-03-01T03:44:29;24.20;;;18.15;;
966;SDS011;56108;48.730;9.304;2023-03-01T03:46:39;24.85;;;19.52;;
966;SDS011;56108;48.730;9.304;2023-03-01T03:48:47;23.85;;;18.90;;
966;SDS011;56108;48.730;9.304;2023-03-01T03:50:56;26.13;;;18.73;;
966;SDS011;56108;48.730;9.304;2023-03-01T03:53:11;25.77;;;18.73;;
966;SDS011;56108;48.730;9.304;2023-03-01T03:55:19;25.73;;;19.45;;
966;SDS011;56108;48.730;9.304;2023-03-01T03:57:27;25.50;;;18.75;;
966;SDS011;56108;48.730;9.304;2023-03-01T03:59:35;25.58;;;18.50;;
966;SDS011;56108;48.730;9.304;2023-03-01T04:01:46;25.77;;;20.00;;
966;SDS011;56108;48.730;9.304;2023-03-01T04:03:54;26.00;;;20.27;;
966;SDS011;56108;48.730;9.304;2023-03-01T04:06:08;24.88;;;19.25;;
966;SDS011;56108;48.730;9.304;2023-03-01T04:08:17;25.73;;;19.33;;
966;SDS011;56108;48.730;9.304;2023-03-01T04:10:25;24.60;;;18.70;;
966;SDS011;56108;48.730;9.304;2023-03-01T04:12:34;24.92;;;18.00;;
966;SDS011;56108;48.730;9.304;2023-03-01T04:14:41;24.50;;;19.00;;
966;SDS011;56108;48.730;9.304;2023-03-01T04:16:55;28.27;;;20.10;;
966;SDS011;56108;48.730;9.304;2023-03-01T04:19:03;25.60;;;19.30;;
966;SDS011;56108;48.730;9.304;2023-03-01T04:21:11;31.58;;;22.00;;
966;SDS011;56108;48.730;9.304;2023-03-01T04:23:19;26.23;;;19.00;;
966;SDS011;56108;48.730;9.304;2023-03-01T04:25:28;25.48;;;20.38;;
966;SDS011;56108;48.730;9.304;2023-03-01T04:27:36;23.45;;;18.33;;
966;SDS011;56108;48.730;9.304;2023-03-01T04:29:45;29.33;;;20.58;;
966;SDS011;56108;48.730;9.304;2023-03-01T04:31:56;24.15;;;18.90;;
966;SDS011;56108;48.730;9.304;2023-03-01T04:34:04;28.38;;;19.50;;
966;SDS011;56108;48.730;9.304;2023-03-01T04:36:12;26.30;;;18.58;;
966;SDS011;56108;48.730;9.304;2023-03-01T04:38:22;27.80;;;20.95;;
966;SDS011;56108;48.730;9.304;2023-03-01T04:40:30;25.92;;;19.73;;
966;SDS011;56108;48.730;9.304;2023-03-01T04:42:38;28.10;;;19.98;;
966;SDS011;56108;48.730;9.304;2023-03-01T04:44:46;27.30;;;20.48;;
966;SDS011;56108;48.730;9.304;2023-03-01T04:46:58;29.38;;;19.95;;
966;SDS011;56108;48.730;9.304;2023-03-01T04:49:06;24.65;;;17.70;;
966;SDS011;56108;48.730;9.304;2023-03-01T04:51:14;29.65;;;19.38;;
966;SDS011;56108;48.730;9.304;2023-03-01T04:53:23;23.63;;;18.70;;
966;SDS011;56108;48.730;9.304;2023-03-01T04:55:31;26.55;;;20.70;;
966;SDS011;56108;48.730;9.304;2023-03-01T04:57:39;28.42;;;21.15;;
966;SDS011;56108;48.730;9.304;2023-03-01T04:59:47;31.58;;;20.23;;
966;SDS011;56108;48.730;9.304;2023-03-01T05:01:58;27.40;;;20.83;;
966;SDS011;56108;48.730;9.304;2023-03-01T05:04:06;24.92;;;19.80;;
966;SDS011;56108;48.730;9.304;2023-03-01T05:06:18;28.58;;;20.65;;
966;SDS011;56108;48.730;9.304;2023-03-01T05:08:27;26.48;;;19.83;;
966;SDS011;56108;48.730;9.304;2023-03-01T05:10:35;25.15;;;19.65;;
966;SDS011;56108;48.730;9.304;2023-03-01T05:12:43;25.85;;;19.33;;
966;SDS011;56108;48.730;9.304;2023-03-01T05:14:52;25.20;;;18.60;;
966;SDS011;56108;48.730;9.304;2023-03-01T05:17:02;24.15;;;18.10;;
966;SDS011;56108;48.730;9.304;2023-03-01T05:19:11;26.88;;;19.05;;
966;SDS011;56108;48.730;9.304;2023-03-01T05:21:20;26.50;;;19.92;;
966;SDS011;56108;48.730;9.304;2023-03-01T05:23:27;28.65;;;20.50;;
966;SDS011;56108;48.730;9.304;2023-03-01T05:25:35;25.23;;;19.30;;
966;SDS011;56108;48.730;9.304;2023-03-01T05:27:44;27.05;;;19.85;;
966;SDS011;56108;48.730;9.304;2023-03-01T05:29:52;28.00;;;19.92;;
966;SDS011;56108;48.730;9.304;2023-03-01T05:32:04;27.70;;;19.42;;
966;SDS011;56108;48.730;9.304;2023-03-01T05:34:13;26.35;;;18.38;;
966;SDS011;56108;48.730;9.304;2023-03-01T05:36:21;27.83;;;20.67;;
966;SDS011;56108;48.730;9.304;2023-03-01T05:38:29;24.05;;;19.70;;
966;SDS011;56108;48.730;9.304;2023-03-01T05:40:37;26.67;;;19.02;;
966;SDS011;56108;48.730;9.304;2023-03-01T05:42:46;26.35;;;19.63;;
966;SDS011;56108;48.730;9.304;2023-03-01T05:44:55;23.75;;;18.15;;
966;SDS011;56108;48.730;9.304;2023-03-01T05:47:06;24.30;;;20.20;;
966;SDS011;56108;48.730;9.304;2023-03-01T05:49:14;27.02;;;19.05;;
966;SDS011;56108;48.730;9.304;2023-03-01T05:51:21;24.92;;;20.15;;
966;SDS011;56108;48.730;9.304;2023-03-01T05:53:30;31.35;;;21.30;;
966;SDS011;56108;48.730;9.304;2023-03-01T05:55:39;27.15;;;19.77;;
966;SDS011;56108;48.730;9.304;2023-03-01T05:57:47;27.67;;;20.42;;
966;SDS011;56108;48.730;9.304;2023-03-01T05:59:55;25.40;;;19.77;;
966;SDS011;56108;48.730;9.304;2023-03-01T06:02:06;26.30;;;19.10;;
966;SDS011;56108;48.730;9.304;2023-03-01T06:04:14;25.23;;;18.58;;
966;SDS011;56108;48.730;9.304;2023-03-01T06:06:22;28.50;;;19.08;;
966;SDS011;56108;48.730;9.304;2023-03-01T06:08:32;28.58;;;19.98;;
966;SDS011;56108;48.730;9.304;2023-03-01T06:10:40;26.40;;;19.30;;
966;SDS011;56108;48.730;9.304;2023-03-01T06:12:48;28.50;;;19.48;;
966;SDS011;56108;48.730;9.304;2023-03-01T06:14:56;29.80;;;18.90;;
966;SDS011;56108;48.730;9.304;2023-03-01T06:17:07;25.77;;;19.55;;
966;SDS011;56108;48.730;9.304;2023-03-01T06:19:14;27.30;;;19.67;;
966;SDS011;56108;48.730;9.304;2023-03-01T06:21:22;27.30;;;17.92;;
966;SDS011;56108;48.730;9.304;2023-03-01T06:23:30;25.17;;;19.83;;
966;SDS011;56108;48.730;9.304;2023-03-01T06:25:39;29.13;;;20.00;;
966;SDS011;56108;48.730;9.304;2023-03-01T06:27:47;28.15;;;20.13;;
966;SDS011;56108;48.730;9.304;2023-03-01T06:29:56;28.25;;;19.90;;
966;SDS011;56108;48.730;9.304;2023-03-01T06:32:09;29.80;;;20.80;;
966;SDS011;56108;48.730;9.304;2023-03-01T06:34:17;27.02;;;18.48;;
966;SDS011;56108;48.730;9.304;2023-03-01T06:36:26;26.48;;;19.27;;
966;SDS011;56108;48.730;9.304;2023-03-01T06:38:34;27.27;;;20.83;;
966;SDS011;56108;48.730;9.304;2023-03-01T06:40:42;25.50;;;20.95;;
966;SDS011;56108;48.730;9.304;2023-03-01T06:42:50;27.23;;;20.40;;
966;SDS011;56108;48.730;9.304;2023-03-01T06:44:58;26.45;;;19.40;;
966;SDS011;56108;48.730;9.304;2023-03-01T06:47:09;28.05;;;19.67;;
966;SDS011;56108;48.730;9.304;2023-03-01T06:49:16;24.48;;;19.17;;
966;SDS011;56108;48.730;9.304;2023-03-01T06:51:25;29.35;;;21.20;;
966;SDS011;56108;48.730;9.304;2023-03-01T06:53:37;26.45;;;20.45;;
966;SDS011;56108;48.730;9.304;2023-03-01T06:55:45;29.60;;;21.85;;
966;SDS011;56108;48.730;9.304;2023-03-01T06:57:54;28.75;;;20.35;;
966;SDS011;56108;48.730;9.304;2023-03-01T07:00:04;28.10;;;20.58;;
966;SDS011;56108;48.730;9.304;2023-03-01T07:02:24;32.53;;;20.65;;
966;SDS011;56108;48.730;9.304;2023-03-01T07:04:32;23.13;;;18.63;;
966;SDS011;56108;48.730;9.304;2023-03-01T07:06:40;24.98;;;18.98;;
966;SDS011;56108;48.730;9.304;2023-03-01T07:08:48;31.15;;;20.63;;
966;SDS011;56108;48.730;9.304;2023-03-01T07:10:57;26.80;;;20.52;;
966;SDS011;56108;48.730;9.304;2023-03-01T07:13:06;28.75;;;20.10;;
966;SDS011;56108;48.730;9.304;2023-03-01T07:15:14;25.77;;;18.63;;
966;SDS011;56108;48.730;9.304;2023-03-01T07:17:25;25.42;;;18.95;;
966;SDS011;56108;48.730;9.304;2023-03-01T07:19:33;25.02;;;20.17;;
966;SDS011;56108;48.730;9.304;2023-03-01T07:21:41;24.50;;;19.40;;
966;SDS011;56108;48.730;9.304;2023-03-01T07:23:49;27.38;;;20.63;;
966;SDS011;56108;48.730;9.304;2023-03-01T07:25:57;26.60;;;19.75;;
966;SDS011;56108;48.730;9.304;2023-03-01T07:28:14;24.60;;;19.45;;
966;SDS011;56108;48.730;9.304;2023-03-01T07:30:25;29.63;;;21.17;;
966;SDS011;56108;48.730;9.304;2023-03-01T07:32:44;24.73;;;19.70;;
966;SDS011;56108;48.730;9.304;2023-03-01T07:34:53;27.83;;;20.67;;
966;SDS011;56108;48.730;9.304;2023-03-01T07:37:00;25.05;;;19.83;;
966;SDS011;56108;48.730;9.304;2023-03-01T07:39:09;29.38;;;20.60;;
966;SDS011;56108;48.730;9.304;2023-03-01T07:41:17;24.95;;;19.60;;
966;SDS011;56108;48.730;9.304;2023-03-01T07:43:25;26.58;;;20.10;;
966;SDS011;56108;48.730;9.304;2023-03-01T07:45:33;24.23;;;18.92;;
966;SDS011;56108;48.730;9.304;2023-03-01T07:47:44;28.15;;;21.52;;
966;SDS011;56108;48.730;9.304;2023-03-01T07:49:52;27.23;;;20.05;;
966;SDS011;56108;48.730;9.304;2023-03-01T07:52:00;28.80;;;19.73;;
966;SDS011;56108;48.730;9.304;2023-03-01T07:54:08;26.35;;;19.38;;
966;SDS011;56108;48.730;9.304;2023-03-01T07:56:16;26.38;;;21.08;;
966;SDS011;56108;48.730;9.304;2023-03-01T07:58:25;26.50;;;20.17;;
966;SDS011;56108;48.730;9.304;2023-03-01T08:00:33;27.30;;;19.77;;
966;SDS011;56108;48.730;9.304;2023-03-01T08:02:44;26.58;;;22.52;;
966;SDS011;56108;48.730;9.304;2023-03-01T08:04:53;29.73;;;22.15;;
966;SDS011;56108;48.730;9.304;2023-03-01T08:07:01;28.95;;;20.33;;
966;SDS011;56108;48.730;9.304;2023-03-01T08:09:12;27.98;;;19.90;;
966;SDS011;56108;48.730;9.304;2023-03-01T08:11:20;27.52;;;20.40;;
966;SDS011;56108;48.730;9.304;2023-03-01T08:13:29;24.83;;;19.70;;
966;SDS011;56108;48.730;9.304;2023-03-01T08:15:37;28.88;;;21.60;;
966;SDS011;56108;48.730;9.304;2023-03-01T08:17:49;28.90;;;20.92;;
966;SDS011;56108;48.730;9.304;2023-03-01T08:19:57;29.98;;;22.08;;
966;SDS011;56108;48.730;9.304;2023-03-01T08:22:07;25.05;;;20.27;;
966;SDS011;56108;48.730;9.304;2023-03-01T08:24:15;29.55;;;21.33;;
966;SDS011;56108;48.730;9.304;2023-03-01T08:26:23;26.95;;;20.77;;
966;SDS011;56108;48.730;9.304;2023-03-01T08:28:32;28.20;;;22.40;;
966;SDS011;56108;48.730;9.304;2023-03-01T08:30:40;30.15;;;20.70;;
966;SDS011;56108;48.730;9.304;2023-03-01T08:32:51;25.73;;;20.05;;
966;SDS011;56108;48.730;9.304;2023-03-01T08:34:59;25.02;;;20.52;;
966;SDS011;56108;48.730;9.304;2023-03-01T08:37:07;26.70;;;20.65;;
966;SDS011;56108;48.730;9.304;2023-03-01T08:39:16;26.75;;;20.67;;
966;SDS011;56108;48.730;9.304;2023-03-01T08:41:25;27.20;;;20.73;;
966;SDS011;56108;48.730;9.304;2023-03-01T08:43:34;29.48;;;21.02;;
966;SDS011;56108;48.730;9.304;2023-03-01T08:45:41;32.50;;;21.25;;
966;SDS011;56108;48.730;9.304;2023-03-01T08:47:54;28.38;;;20.88;;
966;SDS011;56108;48.730;9.304;2023-03-01T08:50:03;26.80;;;20.40;;
966;SDS011;56108;48.730;9.304;2023-03-01T08:52:11;32.67;;;20.88;;
966;SDS011;56108;48.730;9.304;2023-03-01T08:54:19;29.10;;;22.65;;
966;SDS011;56108;48.730;9.304;2023-03-01T08:56:29;26.50;;;19.60;;
966;SDS011;56108;48.730;9.304;2023-03-01T08:58:37;26.55;;;19.55;;
966;SDS011;56108;48.730;9.304;2023-03-01T09:00:46;32.17;;;22.85;;
966;SDS011;56108;48.730;9.304;2023-03-01T09:02:56;27.35;;;19.92;;
966;SDS011;56108;48.730;9.304;2023-03-01T09:05:04;26.73;;;19.55;;
966;SDS011;56108;48.730;9.304;2023-03-01T09:07:13;30.88;;;21.77;;
966;SDS011;56108;48.730;9.304;2023-03-01T09:09:21;28.52;;;21.02;;
966;SDS011;56108;48.730;9.304;2023-03-01T09:11:29;25.80;;;19.15;;
966;SDS011;56108;48.730;9.304;2023-03-01T09:13:37;26.02;;;20.30;;
966;SDS011;56108;48.730;9.304;2023-03-01T09:15:51;27.83;;;20.80;;
966;SDS011;56108;48.730;9.304;2023-03-01T09:18:02;25.83;;;20.25;;
966;SDS011;56108;48.730;9.304;2023-03-01T09:20:11;24.73;;;19.58;;
966;SDS011;56108;48.730;9.304;2023-03-01T09:22:19;25.73;;;20.67;;
966;SDS011;56108;48.730;9.304;2023-03-01T09:24:27;25.60;;;20.10;;
966;SDS011;56108;48.730;9.304;2023-03-01T09:26:35;25.58;;;21.55;;
966;SDS011;56108;48.730;9.304;2023-03-01T09:28:42;24.55;;;20.48;;
966;SDS011;56108;48.730;9.304;2023-03-01T09:30:51;27.83;;;20.42;;
966;SDS011;56108;48.730;9.304;2023-03-01T09:33:02;27.95;;;19.98;;
966;SDS011;56108;48.730;9.304;2023-03-01T09:35:10;26.50;;;20.00;;
966;SDS011;56108;48.730;9.304;2023-03-01T09:37:18;28.15;;;21.00;;
966;SDS011;56108;48.730;9.304;2023-03-01T09:39:26;27.70;;;20.50;;
966;SDS011;56108;48.730;9.304;2023-03-01T09:41:42;24.50;;;18.48;;
966;SDS011;56108;48.730;9.304;2023-03-01T09:43:57;24.23;;;19.05;;
966;SDS011;56108;48.730;9.304;2023-03-01T09:46:13;28.15;;;19.75;;
966;SDS011;56108;48.730;9.304;2023-03-01T09:48:26;23.05;;;18.63;;
966;SDS011;56108;48.730;9.304;2023-03-01T09:50:46;28.33;;;22.48;;
966;SDS011;56108;48.730;9.304;2023-03-01T09:52:56;31.92;;;23.17;;
966;SDS011;56108;48.730;9.304;2023-03-01T09:55:09;26.77;;;20.17;;
966;SDS011;56108;48.730;9.304;2023-03-01T09:57:20;28.00;;;19.35;;
966;SDS011;56108;48.730;9.304;2023-03-01T09:59:39;23.75;;;19.08;;
966;SDS011;56108;48.730;9.304;2023-03-01T10:01:58;24.55;;;19.42;;
966;SDS011;56108;48.730;9.304;2023-03-01T10:04:18;24.60;;;18.80;;
966;SDS011;56108;48.730;9.304;2023-03-01T10:06:36;22.75;;;17.90;;
966;SDS011;56108;48.730;9.304;2023-03-01T10:08:46;23.77;;;19.48;;
966;SDS011;56108;48.730;9.304;2023-03-01T10:10:58;21.80;;;18.10;;
966;SDS011;56108;48.730;9.304;2023-03-01T10:13:08;24.33;;;21.48;;
966;SDS011;56108;48.730;9.304;2023-03-01T10:15:24;21.45;;;18.52;;
966;SDS011;56108;48.730;9.304;2023-03-01T10:17:38;22.48;;;18.30;;
966;SDS011;56108;48.730;9.304;2023-03-01T10:19:51;23.85;;;18.60;;
966;SDS011;56108;48.730;9.304;2023-03-01T10:22:00;23.58;;;19.60;;
966;SDS011;56108;48.730;9.304;2023-03-01T10:24:13;24.88;;;19.40;;
966;SDS011;56108;48.730;9.304;2023-03-01T10:26:30;20.60;;;18.50;;
966;SDS011;56108;48.730;9.304;2023-03-01T10:28:50;21.48;;;18.10;;
966;SDS011;56108;48.730;9.304;2023-03-01T10:31:07;24.52;;;19.15;;
966;SDS011;56108;48.730;9.304;2023-03-01T10:33:20;23.23;;;20.05;;
966;SDS011;56108;48.730;9.304;2023-03-01T10:35:34;20.80;;;18.52;;
966;SDS011;56108;48.730;9.304;2023-03-01T10:37:46;23.17;;;19.58;;
966;SDS011;56108;48.730;9.304;2023-03-01T10:40:06;21.75;;;18.33;;
966;SDS011;56108;48.730;9.304;2023-03-01T10:42:19;24.80;;;18.52;;
966;SDS011;56108;48.730;9.304;2023-03-01T10:44:38;23.75;;;19.52;;
966;SDS011;56108;48.730;9.304;2023-03-01T10:46:48;21.23;;;18.80;;
966;SDS011;56108;48.730;9.304;2023-03-01T10:49:13;22.50;;;18.58;;
966;SDS011;56108;48.730;9.304;2023-03-01T10:51:26;24.25;;;18.52;;
966;SDS011;56108;48.730;9.304;2023-03-01T10:53:35;23.50;;;19.55;;
966;SDS011;56108;48.730;9.304;2023-03-01T10:55:45;28.25;;;19.10;;
966;SDS011;56108;48.730;9.304;2023-03-01T10:58:05;21.73;;;18.67;;
966;SDS011;56108;48.730;9.304;2023-03-01T11:00:17;26.95;;;20.63;;
966;SDS011;56108;48.730;9.304;2023-03-01T11:02:29;22.95;;;20.30;;
966;SDS011;56108;48.730;9.304;2023-03-01T11:04:46;23.92;;;18.92;;
966;SDS011;56108;48.730;9.304;2023-03-01T11:07:07;22.83;;;18.95;;
966;SDS011;56108;48.730;9.304;2023-03-01T11:09:15;24.10;;;19.20;;
966;SDS011;56108;48.730;9.304;2023-03-01T11:11:28;23.70;;;18.80;;
966;SDS011;56108;48.730;9.304;2023-03-01T11:13:38;27.00;;;20.30;;
966;SDS011;56108;48.730;9.304;2023-03-01T11:16:00;23.13;;;18.85;;
966;SDS011;56108;48.730;9.304;2023-03-01T11:18:20;24.35;;;19.52;;
966;SDS011;56108;48.730;9.304;2023-03-01T11:20:50;22.58;;;20.17;;
966;SDS011;56108;48.730;9.304;2023-03-01T11:23:04;25.83;;;21.17;;
966;SDS011;56108;48.730;9.304;2023-03-01T11:25:17;27.95;;;20.92;;
966;SDS011;56108;48.730;9.304;2023-03-01T11:27:30;22.88;;;19.98;;
966;SDS011;56108;48.730;9.304;2023-03-01T11:29:43;22.58;;;19.45;;
966;SDS011;56108;48.730;9.304;2023-03-01T11:31:56;27.95;;;19.92;;
966;SDS011;56108;48.730;9.304;2023-03-01T11:34:09;22.52;;;18.52;;
966;SDS011;56108;48.730;9.304;2023-03-01T11:36:26;24.02;;;20.85;;
966;SDS011;56108;48.730;9.304;2023-03-01T11:38:41;24.48;;;19.48;;
966;SDS011;56108;48.730;9.304;2023-03-01T11:40:52;24.70;;;19.27;;
966;SDS011;56108;48.730;9.304;2023-03-01T11:43:11;23.92;;;18.52;;
966;SDS011;56108;48.730;9.304;2023-03-01T11:45:26;20.95;;;17.55;;
966;SDS011;56108;48.730;9.304;2023-03-01T11:47:53;25.42;;;20.80;;
966;SDS011;56108;48.730;9.304;2023-03-01T11:50:11;25.45;;;19.00;;
966;SDS011;56108;48.730;9.304;2023-03-01T11:52:29;24.77;;;21.13;;
966;SDS011;56108;48.730;9.304;2023-03-01T11:54:52;23.40;;;19.25;;
966;SDS011;56108;48.730;9.304;2023-03-01T11:57:14;24.13;;;19.60;;
966;SDS011;56108;48.730;9.304;2023-03-01T12:02:49;24.42;;;19.63;;
966;SDS011;56108;48.730;9.304;2023-03-01T12:08:04;22.63;;;18.23;;
966;SDS011;56108;48.730;9.304;2023-03-01T12:10:23;21.13;;;17.45;;
966;SDS011;56108;48.730;9.304;2023-03-01T12:12:42;25.15;;;18.92;;
966;SDS011;56108;48.730;9.304;2023-03-01T12:15:07;23.15;;;17.25;;
966;SDS011;56108;48.730;9.304;2023-03-01T12:17:43;22.42;;;18.40;;
966;SDS011;56108;48.730;9.304;2023-03-01T12:20:12;23.70;;;17.85;;
966;SDS011;56108;48.730;9.304;2023-03-01T12:22:29;22.90;;;17.92;;
966;SDS011;56108;48.730;9.304;2023-03-01T12:24:50;19.27;;;16.02;;
966;SDS011;56108;48.730;9.304;2023-03-01T12:27:24;21.23;;;17.05;;
966;SDS011;56108;48.730;9.304;2023-03-01T12:29:52;22.33;;;17.50;;
966;SDS011;56108;48.730;9.304;2023-03-01T12:32:16;23.23;;;17.23;;
966;SDS011;56108;48.730;9.304;2023-03-01T12:34:51;21.45;;;18.10;;
966;SDS011;56108;48.730;9.304;2023-03-01T12:37:25;21.60;;;16.80;;
966;SDS011;56108;48.730;9.304;2023-03-01T12:39:42;19.92;;;17.55;;
966;SDS011;56108;48.730;9.304;2023-03-01T12:42:01;22.80;;;16.95;;
966;SDS011;56108;48.730;9.304;2023-03-01T12:44:27;21.25;;;16.63;;
966;SDS011;56108;48.730;9.304;2023-03-01T12:46:52;23.95;;;17.90;;
966;SDS011;56108;48.730;9.304;2023-03-01T12:49:10;22.70;;;18.10;;
966;SDS011;56108;48.730;9.304;2023-03-01T12:51:23;24.52;;;17.75;;
966;SDS011;56108;48.730;9.304;2023-03-01T12:53:34;23.63;;;18.40;;
966;SDS011;56108;48.730;9.304;2023-03-01T12:55:43;24.42;;;20.30;;
966;SDS011;56108;48.730;9.304;2023-03-01T12:57:53;22.88;;;18.95;;
966;SDS011;56108;48.730;9.304;2023-03-01T13:00:15;22.10;;;17.98;;
966;SDS011;56108;48.730;9.304;2023-03-01T13:02:32;23.00;;;18.55;;
966;SDS011;56108;48.730;9.304;2023-03-01T13:04:52;20.85;;;17.13;;
966;SDS011;56108;48.730;9.304;2023-03-01T13:07:12;21.50;;;19.17;;
966;SDS011;56108;48.730;9.304;2023-03-01T13:09:28;21.95;;;18.10;;
966;SDS011;56108;48.730;9.304;2023-03-01T13:11:42;23.92;;;17.70;;
966;SDS011;56108;48.730;9.304;2023-03-01T13:13:50;24.40;;;19.75;;
966;SDS011;56108;48.730;9.304;2023-03-01T13:18:45;24.27;;;19.90;;
966;SDS011;56108;48.730;9.304;2023-03-01T13:20:54;20.27;;;17.95;;
966;SDS011;56108;48.730;9.304;2023-03-01T13:23:07;22.23;;;16.70;;